AirNav   Everest Fuels
 
 1033 users online  

06FL Morton Plant Hospital Heliport
Clearwater, Florida, USA

GOING TO CLEARWATER?


FAA INFORMATION EFFECTIVE 07 NOVEMBER 2019

Location

FAA Identifier: 06FL
Lat/Long: 27-57-12.7600N 082-48-22.4800W
27-57.212667N 082-48.374667W
27.9535444,-82.8062444
(estimated)
Elevation: 3 ft. / 1 m (estimated)
Variation: 02W (1985)
From city: 1 mile SSW of CLEARWATER, FL
Time zone: UTC -5 (UTC -4 during Daylight Saving Time)
Zip code: 33756

Heliport Operations

Heliport use: Private use, MEDICAL.
Activation date: 08/1980
Control tower: no
ARTCC: MIAMI CENTER
FSS: SAINT PETERSBURG FLIGHT SERVICE STATION
Attendance: UNATNDD
Wind indicator: no
Segmented circle: no

Heliport Communications

WX AWOS-3P at CLW (2.9 nm NE): 119.225 (727-449-2184)
WX ASOS at PIE (7 nm SE): PHONE 727-531-3456
WX ASOS at TPA (15 nm E): PHONE 813-873-7228
WX ASOS at SPG (15 nm SE): 118.875 (727-821-4334)
WX AWOS-3 at TPF (19 nm E): 118.925 (813-251-6824)

Nearby radio navigation aids

VOR radial/distance  VOR name  Freq  Var
PIEr298/7.0ST PETERSBURG VORTAC116.4005W
SRQr344/35.2SARASOTA VOR/DME117.0005W

 
NDB name  Hdg/Dist  Freq  Var  ID
CAPOK250/6.036005WPI .--. ..

Heliport Services

Runway Information

Helipad H1

Dimensions: 200 x 100 ft. / 61 x 30 m
Surface: turf
Latitude: 27-57.212667N
Longitude: 082-48.374667W
Elevation: 3.0 ft.
Traffic pattern: leftleft

Heliport Ownership and Management from official FAA records

Ownership: Privately-owned
Owner: MORTON F PLANT HOS ASSOC. INC
2985 DREW STREET
CLEARWATER, FL 33759
Phone 727-519-1787
Manager: DIANE HEIN
303 PINELLAS ST, SUITE 310
CLEARWATER, FL 33756
Phone (727) 462-7152

Additional Remarks

FOR CD CTC TAMPA APCH AT 813-878-2528.

Instrument Procedures

There are no published instrument procedures at 06FL.

Some nearby airports with instrument procedures:

KCLW - Clearwater Air Park (3 nm NE)
KPIE - St Pete-Clearwater International Airport (7 nm SE)
KTPA - Tampa International Airport (15 nm E)
KSPG - Albert Whitted Airport (15 nm SE)
KMCF - MacDill Air Force Base (16 nm E)
KTPF - Peter O Knight Airport (19 nm E)
 
Loc | Ops | Rwys | IFR | FBO | Links
Com | Nav | Svcs | Stats | Notes


 
Area around 06FL (Morton Plant Hospital Heliport)
 
Road maps at: MapQuest Bing Google
 
Aerial photo
No photo
 
Sectional chart

 
Airport distance calculator
Flying to Morton Plant Hospital Heliport? Find the distance to fly.

From to 06FL

Sunrise and sunset
Times for 17-Nov-2019
 Local
(UTC-5)
 Zulu
(UTC)
Morning civil twilight06:3011:30
Sunrise06:5511:55
Sunset17:3722:37
Evening civil twilight18:0223:02

Current date and time
Zulu (UTC)  18-Nov-2019 01:02:15
Local (UTC-5)  17-Nov-2019 20:02:15
 
METAR
KCLW 
3nm NE 
180055Z AUTO 36004KT 10SM OVC008 12/10 A2992 RMK AO2
KPIE 
7nm E 
180053Z 35008KT 10SM OVC009 13/10 A2992 RMK AO2 SLP132 T01280100
KTPA 
14nm E 
180053Z 35004KT 10SM OVC008 12/10 A2992 RMK AO2 SLP132 T01220100
KSPG 
14nm SE 
180053Z 35006KT 10SM OVC009 13/11 A2990 RMK AO2 SLP125 T01280111
KMCF 
17nm E 
180056Z AUTO 03003KT 10SM OVC008 12/10 A2991 RMK AO2 SLP132 T01190096 FZRANO $
KTPF 
19nm E 
180055Z AUTO 03004KT 10SM OVC009 12/12 A2992 RMK AO2
TAF
KPIE 
7nm E 
172157Z 1722/1818 36007KT P6SM OVC008 FM180700 33005KT P6SM SCT010 SCT250 FM181400 31010KT P6SM FEW030 SCT250
KTPA 
14nm E 
172103Z 1721/1824 34007KT P6SM OVC012 FM180700 33005KT P6SM SCT015 SCT250 FM181400 30010KT P6SM FEW030 SCT250
KMCF 
17nm E 
171700Z 1717/1823 02006KT 9999 BKN010 QNH2987INS BECMG 1721/1722 VRB06KT 9999 BKN015 QNH2984INS BECMG 1817/1818 VRB06KT 9999 SCT020 QNH2982INS TX20/1817Z TN13/1811Z
NOTAMs
Click for the latest NOTAMs
NOTAMs are issued by the DoD/FAA and will open in a separate window not controlled by AirNav.

 

 
 

Would you like to see your business listed on this page?

 If your business provides an interesting product or service to pilots, flight crews, aircraft, or users of the Morton Plant Hospital Heliport, you should consider listing it here.  To start the listing process, click on the button below
 
Add a business
 

Other Pages about Morton Plant Hospital Heliport

Update a link
 
Copyright © AirNav, LLC. All rights reserved. Privacy Policy  Contact